Time;durP1;ratioP1;P1;durP2;ratioP2;P2;SDS_P1;SDS_P2;PMS_P1;PMS_P2;Temp;Humidity;BMP_temperature;BMP_pressure;BME280_temperature;BME280_humidity;BME280_pressure;Samples;Min_cycle;Max_cycle;Signal;HPM_P1;HPM_P2
2022/07/15 00:02:26;;;;;;;1.10;0.70;;;;;;;15.64;100.00;100123.45;1706484;83;21029;-60
2022/07/15 00:04:53;;;;;;;1.30;0.80;;;;;;;15.65;100.00;100128.55;1717555;83;22039;-59
2022/07/15 00:07:22;;;;;;;1.67;0.67;;;;;;;15.64;100.00;100124.77;1743606;81;20923;-58
2022/07/15 00:12:36;;;;;;;1.63;0.77;;;;;;;15.48;100.00;100124.84;1743618;81;21572;-59
2022/07/15 00:15:06;;;;;;;2.90;1.00;;;;;;;15.51;100.00;100122.59;1749670;81;21025;-60
2022/07/15 00:17:33;;;;;;;1.97;0.73;;;;;;;15.64;100.00;100127.40;1747118;80;21080;-65
2022/07/15 00:20:00;;;;;;;1.67;0.63;;;;;;;15.63;100.00;100122.66;1743765;81;22156;-58
2022/07/15 00:22:27;;;;;;;1.30;0.83;;;;;;;15.54;100.00;100131.87;1748417;81;21259;-58
2022/07/15 00:24:54;;;;;;;1.00;0.70;;;;;;;15.61;100.00;100127.83;1744299;81;21077;-58
2022/07/15 00:27:21;;;;;;;1.30;0.80;;;;;;;15.48;100.00;100127.47;1749233;81;21055;-58
2022/07/15 00:29:48;;;;;;;2.70;1.50;;;;;;;15.51;100.00;100127.84;1742860;81;20904;-58
2022/07/15 00:32:15;;;;;;;1.30;0.73;;;;;;;15.48;100.00;100131.41;1749823;81;21862;-60
2022/07/15 00:34:43;;;;;;;1.07;0.70;;;;;;;15.51;100.00;100132.30;1748166;81;21152;-58
2022/07/15 00:37:11;;;;;;;1.30;0.80;;;;;;;15.53;100.00;100127.61;1723518;82;21031;-57
2022/07/15 00:39:38;;;;;;;1.93;0.80;;;;;;;15.38;100.00;100125.85;1734617;81;21014;-65
2022/07/15 00:42:05;;;;;;;2.03;0.90;;;;;;;15.31;100.00;100130.68;1717781;83;21165;-65
2022/07/15 00:44:34;;;;;;;1.43;0.67;;;;;;;15.36;100.00;100131.34;1721647;83;21029;-59
2022/07/15 00:47:01;;;;;;;1.30;0.70;;;;;;;15.39;100.00;100133.53;1725456;83;21164;-57
2022/07/15 00:49:29;;;;;;;1.33;0.80;;;;;;;15.42;100.00;100137.53;1699293;83;21036;-60
2022/07/15 00:51:56;;;;;;;1.03;0.67;;;;;;;15.37;100.00;100139.50;1749309;81;21052;-63
2022/07/15 00:54:26;;;;;;;1.47;0.93;;;;;;;15.44;100.00;100142.06;1721335;82;21904;-58
2022/07/15 00:56:56;;;;;;;2.35;1.05;;;;;;;15.44;100.00;100135.50;1749407;81;21104;-57
2022/07/15 00:59:28;;;;;;;1.80;0.80;;;;;;;15.45;100.00;100141.04;1747628;81;21209;-58
2022/07/15 01:01:55;;;;;;;1.83;0.93;;;;;;;15.39;100.00;100146.66;1745918;81;21494;-58
2022/07/15 01:04:22;;;;;;;1.50;0.80;;;;;;;15.30;100.00;100147.46;1728526;80;21057;-58
2022/07/15 01:06:50;;;;;;;2.60;1.10;;;;;;;15.16;100.00;100149.91;1781761;80;21286;-59
2022/07/15 01:09:19;;;;;;;2.17;0.90;;;;;;;15.08;100.00;100152.30;1780154;80;21057;-58
2022/07/15 01:11:47;;;;;;;2.57;0.90;;;;;;;14.80;100.00;100154.02;1783457;79;21265;-58
2022/07/15 01:14:14;;;;;;;1.57;0.90;;;;;;;14.69;100.00;100154.70;1780965;79;22517;-60
2022/07/15 01:16:42;;;;;;;1.73;0.90;;;;;;;14.58;100.00;100152.75;1783343;80;21042;-60
2022/07/15 01:19:09;;;;;;;1.40;0.80;;;;;;;14.49;100.00;100150.06;1783861;79;21091;-58
2022/07/15 01:21:44;;;;;;;4.83;1.50;;;;;;;14.48;100.00;100151.88;1783655;79;21480;-64
2022/07/15 01:24:12;;;;;;;1.43;1.00;;;;;;;14.41;100.00;100149.80;1724493;80;21674;-59
2022/07/15 01:26:43;;;;;;;3.83;1.07;;;;;;;14.25;100.00;100145.86;1782796;80;20939;-57
2022/07/15 01:29:13;;;;;;;2.97;0.97;;;;;;;14.29;100.00;100148.36;1782944;79;21007;-58
2022/07/15 01:31:41;;;;;;;1.50;1.03;;;;;;;14.24;100.00;100146.85;1713413;83;21036;-65
2022/07/15 01:34:08;;;;;;;1.57;0.90;;;;;;;14.13;100.00;100150.16;1782579;80;21069;-59
2022/07/15 01:36:36;;;;;;;1.33;0.90;;;;;;;14.19;100.00;100155.86;1706157;81;21275;-58
2022/07/15 01:39:05;;;;;;;4.27;1.40;;;;;;;14.20;100.00;100154.04;1782438;80;21105;-59
2022/07/15 01:41:32;;;;;;;2.53;1.00;;;;;;;14.12;100.00;100150.64;1783389;79;21011;-60
2022/07/15 01:44:01;;;;;;;2.17;1.10;;;;;;;14.09;100.00;100151.08;1783261;79;20978;-57
2022/07/15 01:46:29;;;;;;;2.50;1.07;;;;;;;14.11;100.00;100152.17;1780104;80;21042;-57
2022/07/15 01:51:47;;;;;;;1.53;1.10;;;;;;;14.15;100.00;100157.80;1784948;79;21478;-57
2022/07/15 01:54:14;;;;;;;2.57;1.20;;;;;;;14.10;100.00;100159.75;1780632;80;20986;-57
2022/07/15 01:56:43;;;;;;;2.30;0.80;;;;;;;14.11;100.00;100158.73;1781555;79;21003;-59
2022/07/15 01:59:10;;;;;;;1.57;1.03;;;;;;;14.16;100.00;100164.14;1770787;80;21010;-61
2022/07/15 02:01:38;;;;;;;6.73;1.27;;;;;;;14.14;100.00;100162.25;1781403;79;21658;-58
2022/07/15 02:04:11;;;;;;;1.43;0.80;;;;;;;14.25;100.00;100161.59;1779652;79;20879;-59
2022/07/15 02:06:39;;;;;;;1.70;1.00;;;;;;;14.49;100.00;100161.86;1782380;80;21458;-59
2022/07/15 02:09:07;;;;;;;2.70;1.00;;;;;;;14.99;100.00;100161.95;1782484;79;20943;-58
2022/07/15 02:11:36;;;;;;;1.77;0.90;;;;;;;15.43;100.00;100160.97;1782641;80;21121;-58
2022/07/15 02:14:05;;;;;;;3.87;1.00;;;;;;;15.75;100.00;100159.03;1780863;79;22154;-59
2022/07/15 02:16:33;;;;;;;1.57;1.20;;;;;;;16.22;100.00;100154.56;1781141;79;21817;-57
2022/07/15 02:19:02;;;;;;;1.43;0.90;;;;;;;16.88;100.00;100160.72;1780846;80;21552;-59
2022/07/15 02:21:29;;;;;;;1.27;0.80;;;;;;;17.42;100.00;100160.11;1780304;79;22096;-59
2022/07/15 02:23:59;;;;;;;1.73;0.90;;;;;;;18.00;100.00;100152.66;1781962;80;21070;-57
2022/07/15 02:26:26;;;;;;;1.47;0.83;;;;;;;18.57;100.00;100150.00;1780785;80;21301;-58
2022/07/15 02:28:55;;;;;;;2.13;1.10;;;;;;;19.14;100.00;100140.64;1781507;80;20959;-59
2022/07/15 02:31:24;;;;;;;1.83;1.00;;;;;;;19.75;100.00;100134.06;1779912;80;21108;-57
2022/07/15 02:33:51;;;;;;;1.50;0.90;;;;;;;20.34;100.00;100134.68;1783212;79;21324;-54
2022/07/15 02:36:18;;;;;;;1.67;0.83;;;;;;;20.92;100.00;100132.30;1778409;80;21046;-54
2022/07/15 02:38:46;;;;;;;2.70;1.30;;;;;;;21.45;100.00;100131.33;1782306;80;21315;-63
2022/07/15 02:41:14;;;;;;;1.60;1.00;;;;;;;21.91;100.00;100131.50;1781001;79;21940;-59
2022/07/15 02:43:42;;;;;;;2.13;1.07;;;;;;;22.29;100.00;100123.66;1783700;79;21010;-57
2022/07/15 02:46:11;;;;;;;1.13;0.80;;;;;;;22.76;100.00;100126.58;1775089;80;21041;-56
2022/07/15 02:48:38;;;;;;;2.40;1.00;;;;;;;23.30;100.00;100126.01;1781807;79;20915;-63
2022/07/15 02:51:06;;;;;;;1.67;1.23;;;;;;;23.87;100.00;100122.62;1751798;80;21154;-57
2022/07/15 02:53:34;;;;;;;1.33;0.93;;;;;;;24.44;100.00;100120.42;1746141;81;21074;-63
2022/07/15 02:56:03;;;;;;;1.63;1.20;;;;;;;24.85;100.00;100119.55;1783245;80;21003;-57
2022/07/15 02:58:31;;;;;;;1.70;1.12;;;;;;;25.26;100.00;100124.47;1782134;79;21527;-63
2022/07/15 03:01:00;;;;;;;2.92;1.20;;;;;;;25.78;100.00;100124.14;1781194;79;21246;-57
2022/07/15 03:03:28;;;;;;;1.77;1.40;;;;;;;26.30;99.90;100130.91;1783616;80;21256;-63
2022/07/15 03:05:57;;;;;;;2.67;1.32;;;;;;;26.76;90.59;100128.30;1783885;80;21018;-58
2022/07/15 03:08:24;;;;;;;1.50;1.40;;;;;;;27.24;82.27;100134.70;1778975;78;21037;-57
2022/07/15 03:10:51;;;;;;;2.58;1.40;;;;;;;27.76;76.56;100137.15;1784970;80;20927;-57
2022/07/15 03:13:19;;;;;;;2.33;1.30;;;;;;;28.31;69.94;100135.11;1787678;79;21315;-58
2022/07/15 03:15:46;;;;;;;2.30;1.47;;;;;;;28.78;64.76;100135.58;1775109;79;21148;-60
2022/07/15 03:18:14;;;;;;;3.35;1.90;;;;;;;29.33;61.47;100136.56;1787260;80;20926;-59
2022/07/15 03:20:42;;;;;;;2.67;1.60;;;;;;;29.83;57.25;100144.84;1787327;79;20994;-65
2022/07/15 03:23:09;;;;;;;1.92;1.52;;;;;;;30.28;53.71;100148.04;1787055;79;21108;-57
2022/07/15 03:25:38;;;;;;;2.92;1.17;;;;;;;30.62;52.29;100141.59;1787332;79;21014;-58
2022/07/15 03:28:07;;;;;;;2.08;1.20;;;;;;;30.98;49.65;100146.00;1786970;80;21313;-60
2022/07/15 03:30:36;;;;;;;1.65;1.05;;;;;;;31.19;48.47;100138.01;1787584;80;21113;-64
2022/07/15 03:33:03;;;;;;;2.95;1.02;;;;;;;31.49;47.53;100145.56;1787361;80;20903;-59
2022/07/15 03:35:31;;;;;;;4.03;1.27;;;;;;;31.81;46.19;100138.45;1787461;79;21096;-57
2022/07/15 03:37:59;;;;;;;2.42;1.47;;;;;;;32.08;44.79;100151.99;1786877;79;21046;-63
2022/07/15 03:40:26;;;;;;;2.92;2.20;;;;;;;32.36;44.27;100151.68;1786572;79;22048;-65
2022/07/15 03:42:54;;;;;;;2.35;2.00;;;;;;;32.58;43.44;100149.20;1787060;79;21002;-58
2022/07/15 03:45:23;;;;;;;1.95;1.55;;;;;;;32.90;42.35;100146.20;1787505;80;21907;-58
2022/07/15 03:47:51;;;;;;;1.60;1.40;;;;;;;33.13;41.77;100148.50;1760338;79;21116;-64
2022/07/15 03:50:19;;;;;;;3.50;1.50;;;;;;;33.35;40.96;100149.97;1760146;80;20999;-57
2022/07/15 03:52:47;;;;;;;2.10;1.30;;;;;;;33.58;40.67;100148.39;1787010;79;21254;-57
2022/07/15 03:55:14;;;;;;;2.15;1.40;;;;;;;33.87;39.87;100151.95;1776385;79;21903;-57
2022/07/15 03:57:42;;;;;;;2.75;1.10;;;;;;;34.17;39.31;100150.27;1787981;80;21053;-62
2022/07/15 04:00:11;;;;;;;1.70;1.40;;;;;;;34.40;38.50;100149.97;1787030;79;21063;-56
2022/07/15 04:02:41;;;;;;;2.25;1.35;;;;;;;34.53;37.54;100155.55;1786318;79;21362;-57
2022/07/15 04:05:09;;;;;;;1.70;1.30;;;;;;;34.56;37.14;100155.43;1787526;80;21568;-55
2022/07/15 04:07:36;;;;;;;2.20;1.70;;;;;;;34.54;37.10;100157.12;1786931;79;21474;-56
2022/07/15 04:10:05;;;;;;;5.17;1.70;;;;;;;34.51;37.20;100164.59;1786220;80;21007;-58
2022/07/15 04:12:32;;;;;;;2.80;1.80;;;;;;;34.54;36.85;100159.04;1787749;79;21908;-60
2022/07/15 04:14:59;;;;;;;2.60;1.40;;;;;;;34.48;37.17;100163.91;1787139;80;21060;-57
2022/07/15 04:17:27;;;;;;;2.80;1.70;;;;;;;34.50;36.92;100168.42;1787405;79;21105;-57
2022/07/15 04:19:55;;;;;;;2.33;1.50;;;;;;;34.59;37.07;100164.22;1749964;80;21082;-62
2022/07/15 04:22:22;;;;;;;2.70;1.50;;;;;;;34.77;36.04;100170.85;1747456;82;21558;-55
2022/07/15 04:24:50;;;;;;;5.97;2.25;;;;;;;34.70;36.17;100176.11;1747345;82;21092;-61
2022/07/15 04:27:18;;;;;;;3.22;1.92;;;;;;;34.77;36.38;100174.13;1747790;82;21074;-56
2022/07/15 04:29:45;;;;;;;4.03;1.70;;;;;;;34.98;36.17;100174.67;1743458;82;21277;-56
2022/07/15 04:32:14;;;;;;;2.90;1.75;;;;;;;35.14;35.32;100173.91;1747108;82;21471;-57
2022/07/15 04:34:43;;;;;;;3.35;1.70;;;;;;;35.10;35.11;100169.19;1746352;82;21081;-57
2022/07/15 04:37:10;;;;;;;2.17;1.45;;;;;;;35.15;34.78;100175.48;1735852;82;21665;-58
2022/07/15 04:39:39;;;;;;;2.02;1.70;;;;;;;35.17;34.80;100175.36;1747131;82;21508;-57
2022/07/15 04:42:06;;;;;;;2.42;1.67;;;;;;;35.28;34.62;100179.11;1715603;83;21265;-64
2022/07/15 04:44:35;;;;;;;2.25;1.87;;;;;;;35.58;34.78;100178.08;1746606;82;21039;-57
2022/07/15 04:47:05;;;;;;;2.65;2.20;;;;;;;36.03;33.94;100172.66;1746529;81;22040;-55
2022/07/15 04:52:19;;;;;;;2.75;1.82;;;;;;;36.23;33.34;100176.72;1705744;83;20957;-57
2022/07/15 04:54:48;;;;;;;2.40;1.63;;;;;;;36.32;33.39;100172.42;1740738;82;21722;-57
2022/07/15 04:57:18;;;;;;;2.20;2.00;;;;;;;36.57;32.83;100183.78;1726191;83;22271;-56
2022/07/15 04:59:46;;;;;;;1.92;1.60;;;;;;;36.76;32.56;100179.08;1748082;82;21495;-56
2022/07/15 05:02:16;;;;;;;2.10;1.90;;;;;;;36.92;32.51;100177.59;1746717;82;20987;-59
2022/07/15 05:04:46;;;;;;;3.20;2.10;;;;;;;37.15;32.06;100178.95;1747084;82;21469;-57
2022/07/15 05:07:14;;;;;;;2.70;2.50;;;;;;;37.29;31.37;100178.40;1747609;82;22238;-57
2022/07/15 05:09:42;;;;;;;5.78;2.30;;;;;;;37.15;31.40;100182.25;1747097;82;21569;-56
2022/07/15 05:12:11;;;;;;;2.50;2.20;;;;;;;37.09;31.47;100185.05;1740606;82;21789;-57
2022/07/15 05:14:48;;;;;;;5.75;1.92;;;;;;;37.05;31.21;100184.22;1715650;83;21071;-57
2022/07/15 05:17:16;;;;;;;4.03;2.27;;;;;;;37.01;31.37;100189.05;1747100;82;21518;-58
2022/07/15 05:19:45;;;;;;;2.58;2.08;;;;;;;37.15;31.15;100189.05;1747033;82;20896;-59
2022/07/15 05:22:16;;;;;;;3.93;2.13;;;;;;;37.10;31.30;100186.06;1747150;82;21948;-58
2022/07/15 05:24:44;;;;;;;3.62;2.37;;;;;;;37.13;31.17;100192.72;1747431;82;22205;-56
2022/07/15 05:27:12;;;;;;;2.50;2.10;;;;;;;37.11;31.20;100188.20;1707063;82;21337;-58
2022/07/15 05:29:41;;;;;;;2.95;2.15;;;;;;;37.08;31.41;100187.57;1747022;82;21125;-61
2022/07/15 05:32:08;;;;;;;2.80;2.50;;;;;;;37.28;31.58;100193.15;1747150;82;22153;-62
2022/07/15 05:34:35;;;;;;;2.50;1.82;;;;;;;37.36;31.23;100184.52;1747737;82;21045;-56
2022/07/15 05:37:04;;;;;;;3.55;2.02;;;;;;;37.34;31.28;100191.67;1714714;83;21080;-57
2022/07/15 05:39:34;;;;;;;5.85;2.60;;;;;;;37.34;31.15;100187.59;1747581;82;21717;-57
2022/07/15 05:42:01;;;;;;;2.87;2.00;;;;;;;37.35;31.20;100195.95;1735945;82;21779;-57
2022/07/15 05:44:29;;;;;;;2.50;1.80;;;;;;;37.31;31.04;100195.11;1747025;82;21199;-56
2022/07/15 05:46:57;;;;;;;3.12;2.10;;;;;;;37.36;31.10;100189.38;1746281;81;21019;-57
2022/07/15 05:49:26;;;;;;;3.52;1.98;;;;;;;37.62;30.54;100192.70;1746890;82;21044;-56
2022/07/15 05:51:55;;;;;;;2.02;1.82;;;;;;;37.65;30.21;100195.23;1720822;82;20912;-58
2022/07/15 05:54:23;;;;;;;2.40;1.90;;;;;;;37.68;30.38;100197.23;1747341;82;21055;-60
2022/07/15 05:56:51;;;;;;;3.15;1.67;;;;;;;37.68;30.39;100193.93;1747061;82;21507;-56
2022/07/15 05:59:20;;;;;;;2.37;2.00;;;;;;;37.80;30.91;100199.72;1747299;82;21016;-56
2022/07/15 06:01:48;;;;;;;2.92;2.08;;;;;;;38.10;30.58;100202.45;1747557;82;21488;-61
2022/07/15 06:04:16;;;;;;;9.75;2.65;;;;;;;38.44;30.28;100196.45;1746128;82;21475;-59
2022/07/15 06:06:45;;;;;;;3.50;2.65;;;;;;;38.81;29.74;100190.22;1746209;82;21063;-58
2022/07/15 06:09:13;;;;;;;3.72;2.98;;;;;;;39.10;29.22;100191.82;1744702;81;21310;-56
2022/07/15 06:11:40;;;;;;;2.80;2.30;;;;;;;39.30;29.27;100187.70;1746544;82;20894;-59
2022/07/15 06:14:09;;;;;;;3.27;2.42;;;;;;;39.62;28.82;100186.50;1746027;81;21306;-57
2022/07/15 06:16:36;;;;;;;3.83;2.62;;;;;;;40.03;28.38;100184.95;1746452;81;21568;-56
2022/07/15 06:19:05;;;;;;;3.43;2.90;;;;;;;40.31;27.35;100187.03;1744596;81;21541;-57
2022/07/15 06:21:32;;;;;;;3.20;2.60;;;;;;;40.33;27.34;100187.41;1745766;82;21076;-57
2022/07/15 06:24:00;;;;;;;2.65;2.45;;;;;;;40.20;27.30;100188.95;1744747;81;21102;-61
2022/07/15 06:26:27;;;;;;;3.90;2.95;;;;;;;40.37;27.74;100182.73;1747208;81;21398;-57
2022/07/15 06:28:54;;;;;;;3.40;2.80;;;;;;;40.42;26.94;100181.56;1746641;82;21059;-57
2022/07/15 06:31:22;;;;;;;3.33;3.00;;;;;;;40.47;26.99;100179.06;1745059;81;21171;-57
2022/07/15 06:33:49;;;;;;;7.12;3.58;;;;;;;40.55;26.42;100175.97;1745333;81;21268;-62
2022/07/15 06:36:17;;;;;;;3.15;2.77;;;;;;;40.53;26.90;100185.09;1744610;81;21415;-58
2022/07/15 06:38:45;;;;;;;3.27;2.98;;;;;;;40.56;26.81;100179.48;1777887;79;21053;-58
2022/07/15 06:41:12;;;;;;;3.45;2.47;;;;;;;40.62;26.00;100179.30;1782979;80;21087;-58
2022/07/15 06:43:39;;;;;;;3.17;2.83;;;;;;;40.46;26.61;100172.02;1784313;79;21674;-62
2022/07/15 06:46:11;;;;;;;3.42;2.72;;;;;;;40.17;26.37;100181.53;1782511;79;21759;-57
2022/07/15 06:48:41;;;;;;;5.95;3.05;;;;;;;40.11;26.38;100180.30;1783473;79;21041;-58
2022/07/15 06:51:09;;;;;;;4.08;3.10;;;;;;;40.06;26.60;100180.69;1782450;80;21009;-58
2022/07/15 06:53:36;;;;;;;4.62;3.45;;;;;;;39.86;27.39;100182.38;1781485;80;21071;-61
2022/07/15 06:56:04;;;;;;;3.45;2.92;;;;;;;39.75;27.74;100175.31;1782580;80;20962;-56
2022/07/15 06:58:32;;;;;;;3.00;2.70;;;;;;;40.02;27.35;100173.07;1779675;79;21264;-56
2022/07/15 07:00:59;;;;;;;3.00;2.55;;;;;;;40.33;26.29;100157.95;1781796;79;21482;-55
2022/07/15 07:03:28;;;;;;;3.02;2.52;;;;;;;40.42;26.36;100169.86;1780924;79;20995;-62
2022/07/15 07:05:57;;;;;;;3.58;2.75;;;;;;;40.27;25.96;100165.77;1785104;80;21658;-55
2022/07/15 07:08:27;;;;;;;3.33;2.40;;;;;;;39.53;26.19;100166.20;1784653;79;20931;-55
2022/07/15 07:10:54;;;;;;;2.50;1.90;;;;;;;38.54;26.60;100175.16;1781475;80;21258;-56
2022/07/15 07:13:23;;;;;;;3.47;2.10;;;;;;;38.06;27.53;100173.05;1781723;80;20994;-61
2022/07/15 07:15:51;;;;;;;2.70;1.87;;;;;;;38.08;28.30;100174.06;1771379;79;21466;-56
2022/07/15 07:18:18;;;;;;;4.05;2.00;;;;;;;38.41;27.94;100177.34;1782431;80;21477;-56
2022/07/15 07:20:45;;;;;;;3.75;2.10;;;;;;;38.80;27.46;100177.76;1783907;79;21474;-56
2022/07/15 07:23:12;;;;;;;5.72;2.05;;;;;;;39.14;26.96;100170.81;1782769;80;21115;-64
2022/07/15 07:25:39;;;;;;;2.60;1.60;;;;;;;39.40;25.84;100176.08;1784418;79;21084;-58
2022/07/15 07:28:07;;;;;;;3.42;2.52;;;;;;;39.28;25.41;100172.86;1771928;80;21571;-57
2022/07/15 07:30:34;;;;;;;5.60;1.92;;;;;;;39.64;25.79;100172.50;1781918;80;21054;-58
2022/07/15 07:33:01;;;;;;;2.80;1.85;;;;;;;40.01;25.16;100161.96;1783073;79;21043;-58
2022/07/15 07:35:29;;;;;;;3.08;1.98;;;;;;;40.23;25.23;100154.02;1782202;80;21634;-64
2022/07/15 07:37:57;;;;;;;3.83;2.37;;;;;;;40.13;24.72;100164.36;1779873;79;21439;-55
2022/07/15 07:40:26;;;;;;;2.80;1.98;;;;;;;40.21;24.44;100167.89;1781973;79;21041;-55
2022/07/15 07:42:53;;;;;;;3.90;1.90;;;;;;;40.43;24.23;100159.94;1783677;79;20966;-55
2022/07/15 07:45:20;;;;;;;3.80;1.80;;;;;;;40.69;23.61;100158.01;1783396;79;21049;-56
2022/07/15 07:47:47;;;;;;;3.12;1.80;;;;;;;40.72;22.87;100149.03;1780929;79;21584;-57
2022/07/15 07:50:15;;;;;;;2.50;1.92;;;;;;;40.49;23.79;100143.92;1783744;79;22080;-60
2022/07/15 07:52:42;;;;;;;2.87;2.10;;;;;;;40.64;23.43;100147.48;1784329;79;21011;-58
2022/07/15 07:55:09;;;;;;;2.58;1.80;;;;;;;40.54;23.75;100147.06;1778099;80;21061;-58
2022/07/15 07:57:50;;;;;;;2.52;1.72;;;;;;;40.32;24.66;100150.35;1783154;79;21094;-60
2022/07/15 08:00:17;;;;;;;3.47;1.55;;;;;;;40.18;23.75;100159.09;1781414;79;21130;-57
2022/07/15 08:02:45;;;;;;;2.37;1.50;;;;;;;40.36;22.99;100149.77;1779741;79;21007;-57
2022/07/15 08:05:13;;;;;;;2.52;1.77;;;;;;;40.72;22.65;100152.55;1772769;79;21009;-61
2022/07/15 08:07:41;;;;;;;2.70;2.17;;;;;;;40.93;22.89;100147.67;1706046;81;21456;-59
2022/07/15 08:10:09;;;;;;;2.20;1.72;;;;;;;41.16;22.51;100151.96;1783973;79;21525;-57
2022/07/15 08:12:37;;;;;;;4.05;1.85;;;;;;;41.27;22.91;100138.45;1779656;80;21888;-57
2022/07/15 08:15:06;;;;;;;2.55;1.90;;;;;;;41.33;22.95;100140.98;1784587;79;21047;-58
2022/07/15 08:17:33;;;;;;;3.35;2.40;;;;;;;41.22;23.32;100140.23;1783112;80;20989;-57
2022/07/15 08:20:01;;;;;;;5.12;2.17;;;;;;;41.33;23.58;100138.81;1780141;79;21027;-57
2022/07/15 08:22:31;;;;;;;5.05;1.87;;;;;;;41.49;23.30;100141.16;1783451;80;21382;-59
2022/07/15 08:24:58;;;;;;;3.85;2.12;;;;;;;41.38;23.23;100132.17;1779855;80;21896;-63
2022/07/15 08:27:27;;;;;;;2.30;1.60;;;;;;;41.22;23.13;100133.95;1784204;79;21469;-58
2022/07/15 08:29:55;;;;;;;2.08;1.72;;;;;;;41.28;22.98;100130.44;1780532;80;20991;-57
2022/07/15 08:32:22;;;;;;;2.75;1.77;;;;;;;41.21;22.81;100136.51;1784262;79;21053;-60
2022/07/15 08:34:51;;;;;;;2.27;1.70;;;;;;;41.11;23.04;100131.27;1783159;80;20955;-57
2022/07/15 08:37:18;;;;;;;2.22;1.52;;;;;;;40.86;22.17;100127.17;1780023;79;21239;-57
2022/07/15 08:39:45;;;;;;;2.98;1.60;;;;;;;40.47;21.60;100128.52;1782645;79;21918;-59
2022/07/15 08:42:17;;;;;;;4.35;1.67;;;;;;;40.23;21.12;100126.72;1781182;80;21545;-56
2022/07/15 08:44:41;;;;;;;1.77;1.30;;;;;;;40.03;21.31;100124.90;1782255;80;20959;-57
2022/07/15 08:47:09;;;;;;;2.27;1.45;;;;;;;40.09;23.08;100129.41;1715454;82;21109;-56
2022/07/15 08:49:39;;;;;;;2.67;1.55;;;;;;;40.28;23.57;100120.11;1783362;80;21863;-58
2022/07/15 08:52:07;;;;;;;3.67;1.75;;;;;;;40.49;23.56;100117.97;1781815;80;22086;-58
2022/07/15 08:54:35;;;;;;;4.53;1.70;;;;;;;40.47;23.10;100114.27;1784231;79;21006;-56
2022/07/15 08:57:03;;;;;;;2.72;1.75;;;;;;;40.15;23.27;100110.12;1715931;82;21610;-57
2022/07/15 08:59:31;;;;;;;2.37;1.40;;;;;;;39.73;22.78;100114.28;1782380;79;21034;-64
2022/07/15 09:01:59;;;;;;;2.83;1.87;;;;;;;39.08;23.71;100113.71;1781078;80;21688;-56
2022/07/15 09:04:26;;;;;;;4.08;2.05;;;;;;;38.86;24.27;100114.92;1781921;80;21019;-56
2022/07/15 09:06:53;;;;;;;2.35;1.72;;;;;;;39.10;24.69;100116.86;1782831;80;21065;-55
2022/07/15 09:09:33;;;;;;;2.10;1.60;;;;;;;39.35;24.35;100111.55;1776400;80;21459;-58
2022/07/15 09:12:07;;;;;;;3.10;1.82;;;;;;;39.53;23.53;100104.83;1784804;80;21957;-58
2022/07/15 09:14:36;;;;;;;2.95;1.30;;;;;;;39.73;22.73;100099.27;1783383;78;21279;-56
2022/07/15 09:17:15;;;;;;;2.22;1.40;;;;;;;39.82;22.92;100096.98;1784586;80;20927;-58
2022/07/15 09:20:09;;;;;;;3.17;1.35;;;;;;;39.37;22.87;100089.56;1781023;80;21040;-58
2022/07/15 09:22:51;;;;;;;2.20;1.50;;;;;;;38.96;23.46;100099.03;1781420;79;21006;-58
2022/07/15 09:25:18;;;;;;;2.12;1.50;;;;;;;38.52;24.45;100100.61;1786418;80;21422;-55
2022/07/15 09:27:46;;;;;;;4.33;1.87;;;;;;;38.29;24.88;100092.59;1786249;79;21163;-55
2022/07/15 09:36:20;;;;;;;2.85;1.90;;;;;;;38.69;24.12;100090.45;1785656;80;21512;-58
2022/07/15 09:38:51;;;;;;;3.37;1.87;;;;;;;38.83;24.12;100087.09;1783327;80;21001;-56
2022/07/15 09:41:31;;;;;;;4.17;1.87;;;;;;;39.16;23.36;100079.29;1783711;78;21275;-62
2022/07/15 09:44:07;;;;;;;2.20;1.85;;;;;;;39.43;23.79;100074.97;1785793;80;21113;-57
2022/07/15 09:46:57;;;;;;;3.10;1.60;;;;;;;39.72;23.25;100067.70;1780340;80;20949;-56
2022/07/15 09:49:34;;;;;;;2.02;1.70;;;;;;;39.72;23.08;100067.70;1774818;78;21575;-62
2022/07/15 09:52:07;;;;;;;3.35;1.67;;;;;;;39.91;22.89;100065.22;1783300;80;21057;-56
2022/07/15 09:54:40;;;;;;;2.37;1.70;;;;;;;39.93;22.67;100060.72;1760353;78;21225;-56
2022/07/15 09:57:11;;;;;;;2.87;1.57;;;;;;;39.90;22.52;100066.39;1783042;80;20895;-57
2022/07/15 09:59:38;;;;;;;2.22;1.47;;;;;;;39.98;22.42;100060.36;1782563;79;21015;-58
2022/07/15 10:02:10;;;;;;;2.70;1.65;;;;;;;40.09;21.51;100054.33;1749488;80;21030;-56
2022/07/15 10:04:37;;;;;;;2.02;1.80;;;;;;;40.15;21.61;100058.25;1781952;80;21061;-62
2022/07/15 10:07:05;;;;;;;4.00;1.82;;;;;;;40.17;21.19;100056.52;1783253;80;22411;-57
2022/07/15 10:09:35;;;;;;;2.10;1.40;;;;;;;40.03;21.38;100051.19;1782555;80;20887;-60
2022/07/15 10:12:10;;;;;;;2.42;1.65;;;;;;;39.93;21.82;100054.70;1782383;80;21917;-56
2022/07/15 10:15:19;;;;;;;2.52;1.70;;;;;;;39.95;21.65;100055.67;1783504;79;20950;-58
2022/07/15 10:18:23;;;;;;;3.50;1.70;;;;;;;39.73;21.85;100051.52;1781831;79;20971;-63
2022/07/15 10:21:20;;;;;;;2.10;1.87;;;;;;;39.49;22.54;100050.84;1778796;80;22123;-58
2022/07/15 10:24:30;;;;;;;2.92;1.80;;;;;;;38.93;23.10;100052.88;1780865;80;21237;-58
2022/07/15 10:27:26;;;;;;;3.00;2.22;;;;;;;38.17;23.33;100043.87;1783046;80;20991;-57
2022/07/15 10:29:53;;;;;;;3.30;2.50;;;;;;;37.56;24.35;100044.58;1781953;80;21055;-56
2022/07/15 10:32:20;;;;;;;2.95;2.22;;;;;;;37.50;24.89;100045.47;1783505;79;21413;-56
2022/07/15 10:34:48;;;;;;;5.10;2.80;;;;;;;37.67;24.49;100042.77;1784135;79;21262;-59
2022/07/15 10:37:15;;;;;;;3.25;2.70;;;;;;;37.73;24.63;100041.84;1779342;80;20986;-57
2022/07/15 10:39:55;;;;;;;3.77;2.80;;;;;;;37.49;24.79;100039.05;1782105;79;21027;-56
2022/07/15 10:42:22;;;;;;;4.30;2.87;;;;;;;37.59;24.76;100038.98;1770222;80;21066;-55
2022/07/15 10:45:03;;;;;;;4.72;2.62;;;;;;;37.78;24.74;100037.45;1781425;79;20992;-57
2022/07/15 10:47:33;;;;;;;5.58;2.87;;;;;;;37.83;24.40;100034.38;1782699;80;21795;-56
2022/07/15 10:50:04;;;;;;;4.95;2.45;;;;;;;38.07;24.73;100032.30;1782024;80;21034;-55
2022/07/15 10:52:31;;;;;;;3.58;2.75;;;;;;;38.39;23.91;100033.41;1725636;80;21512;-58
2022/07/15 10:55:07;;;;;;;3.55;2.45;;;;;;;38.45;23.86;100031.10;1778815;80;21047;-57
2022/07/15 10:57:49;;;;;;;3.87;2.70;;;;;;;38.41;24.13;100026.98;1781928;80;21485;-63
2022/07/15 11:00:31;;;;;;;3.20;2.20;;;;;;;38.54;23.99;100015.82;1781022;79;21067;-62
2022/07/15 11:03:12;;;;;;;5.28;3.05;;;;;;;38.51;23.97;100020.66;1779339;80;21259;-56
2022/07/15 11:05:56;;;;;;;2.87;2.35;;;;;;;38.24;23.96;100012.64;1781501;80;20955;-63
2022/07/15 11:08:41;;;;;;;2.92;2.20;;;;;;;38.01;24.40;100014.77;1778418;80;21006;-57
2022/07/15 11:11:20;;;;;;;3.65;2.20;;;;;;;37.86;24.27;100015.95;1788825;80;21537;-56
2022/07/15 11:13:48;;;;;;;3.35;2.42;;;;;;;37.59;24.99;100013.93;1761001;80;21496;-56
2022/07/15 11:16:18;;;;;;;4.97;3.52;;;;;;;37.50;24.91;100023.72;1789708;79;21037;-60
2022/07/15 11:18:48;;;;;;;;;;;;;;;37.58;24.41;100021.08;1792970;79;20989;-56
2022/07/15 11:21:15;;;;;;;3.08;2.50;;;;;;;37.62;24.55;100019.99;1789070;78;20409;-59
2022/07/15 11:23:46;;;;;;;2.65;2.25;;;;;;;37.46;24.47;100012.02;1787049;80;21206;-56
2022/07/15 11:26:15;;;;;;;3.30;2.50;;;;;;;37.45;24.76;100011.82;1787944;79;21248;-56
2022/07/15 11:28:55;;;;;;;3.12;2.65;;;;;;;37.36;24.84;100012.67;1790384;79;21017;-56
2022/07/15 11:31:24;;;;;;;2.90;2.35;;;;;;;37.37;24.72;100016.94;1753835;80;21164;-57
2022/07/15 11:33:55;;;;;;;4.10;2.42;;;;;;;37.56;24.71;100010.59;1790104;79;20947;-57
2022/07/15 11:36:24;;;;;;;4.37;2.20;;;;;;;37.68;24.30;100009.55;1789473;80;21050;-57
2022/07/15 11:38:58;;;;;;;3.33;2.27;;;;;;;37.44;24.63;100012.98;1788734;79;21246;-58
2022/07/15 11:44:32;;;;;;;3.30;2.20;;;;;;;37.26;24.51;100013.31;1779595;80;21089;-56
2022/07/15 11:47:00;;;;;;;2.98;2.30;;;;;;;37.34;24.01;100019.62;1790228;80;21101;-64
2022/07/15 11:49:44;;;;;;;3.10;2.37;;;;;;;37.46;23.89;100011.23;1789437;80;21044;-59
2022/07/15 11:52:25;;;;;;;2.80;2.40;;;;;;;37.49;24.50;100012.64;1710838;81;21402;-56
2022/07/15 11:54:52;;;;;;;4.17;2.20;;;;;;;37.64;23.96;100007.37;1721564;81;21065;-57